Time;durP1;ratioP1;P1;durP2;ratioP2;P2;SDS_P1;SDS_P2;PMS_P1;PMS_P2;Temp;Humidity;BMP_temperature;BMP_pressure;BME280_temperature;BME280_humidity;BME280_pressure;Samples;Min_cycle;Max_cycle;Signal;HPM_P1;HPM_P2
2021/03/31 00:00:38;;;;;;;;;;;;;;;21.49;51.24;102290.53;2114665;28;1973;-30
2021/03/31 00:01:42;;;;;;;;;;;;;;;21.48;51.40;102286.84;2114740;28;3157;-29
2021/03/31 00:02:43;;;;;;;;;;;;;;;21.49;51.26;102282.00;2114556;28;3562;-32
2021/03/31 00:03:44;;;;;;;;;;;;;;;21.49;51.27;102293.38;2114332;28;3291;-28
2021/03/31 00:04:45;;;;;;;;;;;;;;;21.48;51.38;102286.84;2114699;28;3468;-29
2021/03/31 00:05:45;;;;;;;;;;;;;;;21.49;51.48;102284.84;2107039;28;2442;-29
2021/03/31 00:06:50;;;;;;;;;;;;;;;21.49;51.34;102276.28;2114001;28;3364;-29
2021/03/31 00:07:51;;;;;;;;;;;;;;;21.50;51.61;102283.66;2107871;28;1975;-30
2021/03/31 00:08:52;;;;;;;;;;;;;;;21.50;51.54;102280.81;2114425;28;2426;-28
2021/03/31 00:09:52;;;;;;;;;;;;;;;21.50;51.41;102289.34;2109553;28;2740;-33
2021/03/31 00:10:53;;;;;;;;;;;;;;;21.50;51.54;102275.13;2114808;28;3267;-29
2021/03/31 00:11:54;;;;;;;;;;;;;;;21.50;51.61;102275.13;2107463;28;2549;-31
2021/03/31 00:12:55;;;;;;;;;;;;;;;21.50;51.47;102278.84;2112611;28;3671;-29
2021/03/31 00:13:55;;;;;;;;;;;;;;;21.50;51.64;102280.81;2114863;28;2128;-29
2021/03/31 00:14:56;;;;;;;;;;;;;;;21.50;51.66;102273.13;2115990;28;1253;-29
2021/03/31 00:15:57;;;;;;;;;;;;;;;21.50;51.53;102267.44;2113802;28;3194;-30
2021/03/31 00:16:58;;;;;;;;;;;;;;;21.50;51.63;102275.13;2110194;28;2336;-29
2021/03/31 00:17:58;;;;;;;;;;;;;;;21.50;51.49;102275.13;2114372;27;3297;-31
2021/03/31 00:18:59;;;;;;;;;;;;;;;21.51;51.61;102273.97;2107091;28;2417;-28
2021/03/31 00:20:00;;;;;;;;;;;;;;;21.51;51.71;102277.66;2115445;28;3132;-35
2021/03/31 00:21:01;;;;;;;;;;;;;;;21.50;51.74;102270.28;2111653;28;2445;-28
2021/03/31 00:22:02;;;;;;;;;;;;;;;21.52;51.70;102278.50;2115795;28;1555;-32
2021/03/31 00:23:03;;;;;;;;;;;;;;;21.51;51.81;102271.97;2110762;27;3616;-31
2021/03/31 00:24:04;;;;;;;;;;;;;;;21.51;51.76;102265.44;2107440;28;2588;-29
2021/03/31 00:25:04;;;;;;;;;;;;;;;21.52;51.83;102275.66;2111018;28;2546;-29
2021/03/31 00:26:05;;;;;;;;;;;;;;;21.52;51.79;102264.25;2114755;28;3198;-28
2021/03/31 00:27:06;;;;;;;;;;;;;;;21.51;52.08;102263.41;2107445;28;3329;-28
2021/03/31 00:28:07;;;;;;;;;;;;;;;21.52;51.81;102255.72;2110720;28;2191;-32
2021/03/31 00:29:07;;;;;;;;;;;;;;;21.51;51.83;102266.25;2114528;28;2088;-28
2021/03/31 00:30:08;;;;;;;;;;;;;;;21.51;52.00;102257.72;2114799;28;3791;-29
2021/03/31 00:31:09;;;;;;;;;;;;;;;21.52;51.89;102259.41;2113627;27;1809;-29
2021/03/31 00:32:10;;;;;;;;;;;;;;;21.53;52.00;102260.22;2115422;28;1410;-28
2021/03/31 00:33:10;;;;;;;;;;;;;;;21.53;52.11;102258.25;2115735;28;1210;-30
2021/03/31 00:34:11;;;;;;;;;;;;;;;21.52;51.90;102258.56;2114976;28;2108;-34
2021/03/31 00:35:12;;;;;;;;;;;;;;;21.52;52.09;102255.72;2113690;28;2129;-29
2021/03/31 00:36:13;;;;;;;;;;;;;;;21.52;52.04;102253.69;2110598;28;2571;-29
2021/03/31 00:37:14;;;;;;;;;;;;;;;21.52;52.03;102252.88;2115708;28;1380;-29
2021/03/31 00:38:15;;;;;;;;;;;;;;;21.52;52.02;102252.88;2116049;28;1134;-29
2021/03/31 00:39:16;;;;;;;;;;;;;;;21.52;51.91;102253.69;2113702;28;2244;-28
2021/03/31 00:40:17;;;;;;;;;;;;;;;21.52;52.00;102250.84;2115450;28;1583;-29
2021/03/31 00:41:18;;;;;;;;;;;;;;;21.52;51.94;102252.88;2113335;27;3245;-30
2021/03/31 00:42:18;;;;;;;;;;;;;;;21.52;51.84;102253.69;2108703;28;2265;-29
2021/03/31 00:43:19;;;;;;;;;;;;;;;21.53;51.84;102263.06;2114338;28;1470;-29
2021/03/31 00:44:20;;;;;;;;;;;;;;;21.53;51.85;102251.69;2113303;28;3448;-30
2021/03/31 00:45:21;;;;;;;;;;;;;;;21.53;51.91;102252.56;2113614;28;2630;-28
2021/03/31 00:46:22;;;;;;;;;;;;;;;21.54;51.96;102261.94;2109549;28;3261;-36
2021/03/31 00:47:22;;;;;;;;;;;;;;;21.53;51.98;102251.69;2109115;28;1156;-30
2021/03/31 00:48:23;;;;;;;;;;;;;;;21.53;51.84;102251.69;2113670;28;3421;-31
2021/03/31 00:49:24;;;;;;;;;;;;;;;21.53;51.99;102248.84;2112695;28;2343;-36
2021/03/31 00:50:25;;;;;;;;;;;;;;;21.53;51.90;102255.41;2106078;28;3499;-32
2021/03/31 00:51:25;;;;;;;;;;;;;;;21.53;51.98;102254.53;2111623;28;3167;-31
2021/03/31 00:52:26;;;;;;;;;;;;;;;21.53;51.80;102248.84;2109597;28;2931;-29
2021/03/31 00:53:27;;;;;;;;;;;;;;;21.54;51.68;102256.25;2110533;28;2152;-29
2021/03/31 00:54:28;;;;;;;;;;;;;;;21.53;51.78;102258.25;2112706;28;3131;-33
2021/03/31 00:55:29;;;;;;;;;;;;;;;21.53;51.63;102258.25;2109890;28;2521;-33
2021/03/31 00:56:30;;;;;;;;;;;;;;;21.53;51.89;102258.25;2114559;28;1333;-29
2021/03/31 00:57:31;;;;;;;;;;;;;;;21.54;51.65;102256.25;2110195;28;3292;-36
2021/03/31 00:58:32;;;;;;;;;;;;;;;21.54;51.75;102253.38;2110439;27;2280;-27
2021/03/31 00:59:32;;;;;;;;;;;;;;;21.54;51.58;102256.25;2115763;28;1435;-32
2021/03/31 01:00:33;;;;;;;;;;;;;;;21.53;51.66;102251.69;2114092;28;3208;-28
2021/03/31 01:01:34;;;;;;;;;;;;;;;21.53;51.61;102254.53;2110992;28;2391;-31
2021/03/31 01:02:36;;;;;;;;;;;;;;;21.54;51.86;102253.38;2113680;28;1684;-29
2021/03/31 01:03:38;;;;;;;;;;;;;;;21.54;51.83;102257.06;2114242;28;2504;-32
2021/03/31 01:04:39;;;;;;;;;;;;;;;21.54;51.82;102250.53;2114428;28;2110;-29
2021/03/31 01:05:40;;;;;;;;;;;;;;;21.54;51.70;102257.06;2108119;28;1995;-29
2021/03/31 01:06:41;;;;;;;;;;;;;;;21.53;51.72;102249.72;2112753;28;3314;-33
2021/03/31 01:07:41;;;;;;;;;;;;;;;21.55;51.72;102249.38;2111405;28;2462;-29
2021/03/31 01:08:43;;;;;;;;;;;;;;;21.54;51.77;102262.78;2114151;28;2252;-29
2021/03/31 01:09:44;;;;;;;;;;;;;;;21.54;51.64;102256.25;2115066;28;2656;-30
2021/03/31 01:10:44;;;;;;;;;;;;;;;21.54;51.59;102256.25;2111185;28;3151;-33
2021/03/31 01:11:45;;;;;;;;;;;;;;;21.54;51.86;102250.53;2115577;28;1974;-37
2021/03/31 01:12:46;;;;;;;;;;;;;;;21.56;51.57;102256.78;2115123;28;1333;-32
2021/03/31 01:13:47;;;;;;;;;;;;;;;21.56;51.74;102257.59;2109755;28;2935;-33
2021/03/31 01:14:47;;;;;;;;;;;;;;;21.54;51.75;102250.53;2111080;28;2276;-33
2021/03/31 01:15:48;;;;;;;;;;;;;;;21.54;51.70;102257.06;2115456;28;1988;-29
2021/03/31 01:16:49;;;;;;;;;;;;;;;21.54;51.77;102247.69;2107042;28;3561;-29
2021/03/31 01:17:50;;;;;;;;;;;;;;;21.55;51.71;102249.38;2111143;28;3231;-37
2021/03/31 01:18:50;;;;;;;;;;;;;;;21.55;51.65;102255.06;2110356;28;2190;-28
2021/03/31 01:19:51;;;;;;;;;;;;;;;21.54;51.69;102248.53;2112751;28;2855;-31
2021/03/31 01:20:52;;;;;;;;;;;;;;;21.54;51.64;102248.53;2112264;28;2427;-29
2021/03/31 01:21:53;;;;;;;;;;;;;;;21.55;51.86;102255.06;2114712;28;1586;-31
2021/03/31 01:22:54;;;;;;;;;;;;;;;21.57;51.63;102255.59;2115361;28;1468;-28
2021/03/31 01:23:54;;;;;;;;;;;;;;;21.56;51.64;102256.78;2109752;28;2101;-31
2021/03/31 01:24:55;;;;;;;;;;;;;;;21.55;51.76;102249.38;2112820;28;2006;-32
2021/03/31 01:25:56;;;;;;;;;;;;;;;21.54;51.67;102253.38;2113463;28;2514;-31
2021/03/31 01:26:57;;;;;;;;;;;;;;;21.57;51.71;102262.13;2110475;28;2236;-29
2021/03/31 01:27:58;;;;;;;;;;;;;;;21.55;51.73;102253.06;2112207;28;1942;-28
2021/03/31 01:28:58;;;;;;;;;;;;;;;21.56;51.75;102251.91;2113942;28;1321;-30
2021/03/31 01:29:59;;;;;;;;;;;;;;;21.54;51.73;102247.69;2111480;28;3690;-33
2021/03/31 01:31:00;;;;;;;;;;;;;;;21.54;51.70;102251.38;2113991;28;1393;-31
2021/03/31 01:32:01;;;;;;;;;;;;;;;21.55;51.88;102243.66;2112614;28;2187;-28
2021/03/31 01:33:01;;;;;;;;;;;;;;;21.54;51.76;102251.38;2112736;28;2147;-29
2021/03/31 01:34:02;;;;;;;;;;;;;;;21.55;51.80;102240.81;2113527;28;1831;-30
2021/03/31 01:35:03;;;;;;;;;;;;;;;21.54;51.82;102245.69;2115370;28;1107;-30
2021/03/31 01:36:04;;;;;;;;;;;;;;;21.55;51.74;102246.53;2112268;28;2141;-29
2021/03/31 01:37:04;;;;;;;;;;;;;;;21.57;51.74;102244.19;2114989;28;1556;-29
2021/03/31 01:38:05;;;;;;;;;;;;;;;21.55;51.72;102246.53;2111820;28;1413;-29
2021/03/31 01:39:06;;;;;;;;;;;;;;;21.54;51.76;102240.00;2109979;28;2277;-30
2021/03/31 01:40:07;;;;;;;;;;;;;;;21.55;51.92;102240.81;2114869;28;2106;-31
2021/03/31 01:41:07;;;;;;;;;;;;;;;21.56;51.72;102249.06;2112066;28;2143;-31
2021/03/31 01:42:08;;;;;;;;;;;;;;;21.54;51.80;102233.47;2107901;28;2432;-28
2021/03/31 01:43:09;;;;;;;;;;;;;;;21.54;51.88;102240.00;2115167;28;2414;-30
2021/03/31 01:44:10;;;;;;;;;;;;;;;21.55;51.83;102240.81;2115073;28;1209;-29
2021/03/31 01:45:11;;;;;;;;;;;;;;;21.56;51.97;102237.66;2113634;28;2125;-28
2021/03/31 01:46:11;;;;;;;;;;;;;;;21.55;52.14;102235.13;2111613;28;2146;-31
2021/03/31 01:47:13;;;;;;;;;;;;;;;21.57;51.99;102239.34;2112853;28;1630;-28
2021/03/31 01:48:13;;;;;;;;;;;;;;;21.61;52.87;102238.69;2112952;28;2091;-29
2021/03/31 01:49:14;;;;;;;;;;;;;;;21.60;52.58;102237.03;2115210;28;1250;-32
2021/03/31 01:50:15;;;;;;;;;;;;;;;21.57;52.36;102236.50;2115511;28;1564;-33
2021/03/31 01:51:16;;;;;;;;;;;;;;;21.58;52.42;102234.47;2110585;28;2269;-29
2021/03/31 01:52:16;;;;;;;;;;;;;;;21.58;52.24;102231.63;2109217;28;2233;-29
2021/03/31 01:53:17;;;;;;;;;;;;;;;21.57;52.24;102229.97;2112082;28;1386;-29
2021/03/31 01:54:18;;;;;;;;;;;;;;;21.57;52.26;102230.78;2112023;28;2331;-29
2021/03/31 01:55:19;;;;;;;;;;;;;;;21.57;52.16;102232.81;2113228;28;1967;-31
2021/03/31 01:56:20;;;;;;;;;;;;;;;21.56;52.09;102229.13;2111672;28;2130;-28
2021/03/31 01:57:21;;;;;;;;;;;;;;;21.57;52.08;102236.50;2111128;28;2559;-31
2021/03/31 01:58:21;;;;;;;;;;;;;;;21.57;52.20;102230.78;2113526;28;2208;-30
2021/03/31 01:59:22;;;;;;;;;;;;;;;21.57;52.14;102238.50;2111288;28;2140;-29
2021/03/31 02:00:23;;;;;;;;;;;;;;;21.57;51.98;102230.78;2111395;28;1230;-33
2021/03/31 02:01:24;;;;;;;;;;;;;;;21.57;52.21;102230.78;2112998;28;2218;-31
2021/03/31 02:02:25;;;;;;;;;;;;;;;21.57;51.98;102233.66;2109457;28;2190;-29
2021/03/31 02:03:26;;;;;;;;;;;;;;;21.57;52.01;102227.94;2113347;28;1229;-30
2021/03/31 02:04:27;;;;;;;;;;;;;;;21.57;52.11;102227.94;2116595;28;1814;-30
2021/03/31 02:05:28;;;;;;;;;;;;;;;21.57;52.16;102227.94;2115994;27;2133;-29
2021/03/31 02:06:32;;;;;;;;;;;;;;;21.57;51.98;102225.09;2111662;28;2130;-32
2021/03/31 02:07:32;;;;;;;;;;;;;;;21.58;52.18;102223.09;2113150;28;2259;-29
2021/03/31 02:08:33;;;;;;;;;;;;;;;21.59;52.15;102218.25;2109089;28;2188;-31
2021/03/31 02:09:44;;;;;;;;;;;;;;;21.58;52.15;102223.09;2114597;28;4126;-29
2021/03/31 02:10:44;;;;;;;;;;;;;;;21.59;52.30;102221.94;2116552;28;1313;-30
2021/03/31 02:11:45;;;;;;;;;;;;;;;21.59;52.34;102224.78;2114250;28;2188;-29
2021/03/31 02:12:46;;;;;;;;;;;;;;;21.59;52.23;102218.25;2110989;28;2044;-28
2021/03/31 02:13:47;;;;;;;;;;;;;;;21.59;52.29;102224.78;2115669;27;2235;-29
2021/03/31 02:14:47;;;;;;;;;;;;;;;21.59;52.35;102216.25;2114506;28;1214;-31
2021/03/31 02:15:48;;;;;;;;;;;;;;;21.59;52.18;102221.94;2116704;28;1148;-28
2021/03/31 02:16:49;;;;;;;;;;;;;;;21.59;52.21;102210.56;2111943;28;2300;-29
2021/03/31 02:17:50;;;;;;;;;;;;;;;21.59;52.26;102219.09;2114664;28;1392;-27
2021/03/31 02:18:51;;;;;;;;;;;;;;;21.60;52.14;102214.22;2116417;28;1789;-27
2021/03/31 02:19:52;;;;;;;;;;;;;;;21.60;52.19;102211.38;2112859;28;2257;-28
2021/03/31 02:20:52;;;;;;;;;;;;;;;21.59;52.14;102207.69;2116721;28;1158;-30
2021/03/31 02:21:53;;;;;;;;;;;;;;;21.59;52.24;102207.69;2115664;28;1996;-28
2021/03/31 02:22:54;;;;;;;;;;;;;;;21.59;52.28;102210.56;2116644;27;2229;-29
2021/03/31 02:23:55;;;;;;;;;;;;;;;21.59;52.23;102209.72;2116508;28;1553;-27
2021/03/31 02:24:56;;;;;;;;;;;;;;;21.60;52.28;102208.53;2116404;28;1324;-29
2021/03/31 02:25:56;;;;;;;;;;;;;;;21.60;52.20;102205.69;2114264;28;2409;-29
2021/03/31 02:26:57;;;;;;;;;;;;;;;21.60;52.28;102208.53;2112372;28;2168;-29
2021/03/31 02:27:58;;;;;;;;;;;;;;;21.59;52.42;102204.84;2111813;28;2044;-29
2021/03/31 02:28:59;;;;;;;;;;;;;;;21.60;52.36;102202.84;2111500;28;1146;-28
2021/03/31 02:29:59;;;;;;;;;;;;;;;21.60;52.39;102205.69;2110951;28;3675;-30
2021/03/31 02:31:00;;;;;;;;;;;;;;;21.60;52.31;102200.81;2113032;28;2273;-29
2021/03/31 02:32:01;;;;;;;;;;;;;;;21.60;52.42;102203.69;2113357;28;2149;-29
2021/03/31 02:33:02;;;;;;;;;;;;;;;21.60;52.60;102203.69;2113844;28;2534;-27
2021/03/31 02:34:02;;;;;;;;;;;;;;;21.60;52.50;102200.81;2115481;28;2331;-32
2021/03/31 02:35:11;;;;;;;;;;;;;;;21.60;52.58;102206.53;2116797;28;1602;-29
2021/03/31 02:36:12;;;;;;;;;;;;;;;21.61;52.55;102204.50;2115592;27;2071;-29
2021/03/31 02:37:13;;;;;;;;;;;;;;;21.61;52.72;102207.34;2113078;28;2570;-29
2021/03/31 02:38:14;;;;;;;;;;;;;;;21.61;52.45;102205.34;2115316;28;2184;-33
2021/03/31 02:39:15;;;;;;;;;;;;;;;21.61;52.43;102208.19;2115691;28;2088;-28
2021/03/31 02:40:15;;;;;;;;;;;;;;;21.61;52.55;102208.19;2110971;28;2361;-29
2021/03/31 02:41:16;;;;;;;;;;;;;;;21.61;52.60;102208.19;2114152;28;1574;-30
2021/03/31 02:42:17;;;;;;;;;;;;;;;21.60;52.68;102203.69;2114061;28;2307;-29
2021/03/31 02:43:18;;;;;;;;;;;;;;;21.60;52.45;102209.38;2116861;28;1408;-29
2021/03/31 02:44:19;;;;;;;;;;;;;;;21.60;52.59;102203.69;2115175;28;2445;-29
2021/03/31 02:45:20;;;;;;;;;;;;;;;21.61;52.61;102201.66;2115497;28;2343;-30
2021/03/31 02:46:20;;;;;;;;;;;;;;;21.60;52.75;102197.97;2115493;28;1346;-30
2021/03/31 02:47:21;;;;;;;;;;;;;;;21.62;52.82;102206.22;2115118;28;2398;-28
2021/03/31 02:48:22;;;;;;;;;;;;;;;21.62;52.79;102200.53;2114650;28;1918;-31
2021/03/31 02:49:23;;;;;;;;;;;;;;;21.62;52.77;102204.19;2111814;28;2157;-28
2021/03/31 02:50:24;;;;;;;;;;;;;;;21.63;52.69;102200.19;2113351;28;2083;-28
2021/03/31 02:51:28;;;;;;;;;;;;;;;21.62;52.77;102197.66;2115271;28;2102;-31
2021/03/31 02:52:44;;;;;;;;;;;;;;;21.64;52.84;102192.47;2115967;28;1595;-29
2021/03/31 02:53:45;;;;;;;;;;;;;;;21.64;52.92;102201.00;2116567;28;1129;-28
2021/03/31 02:54:46;;;;;;;;;;;;;;;21.64;52.79;102199.03;2108050;28;2076;-31
2021/03/31 02:55:47;;;;;;;;;;;;;;;21.63;52.63;102191.63;2112829;28;2642;-29
2021/03/31 02:56:47;;;;;;;;;;;;;;;21.64;52.70;102199.03;2111207;28;2178;-29
2021/03/31 02:57:48;;;;;;;;;;;;;;;21.63;52.74;102194.47;2115847;28;1134;-29
2021/03/31 02:58:49;;;;;;;;;;;;;;;21.63;52.74;102194.47;2112205;28;2213;-31
2021/03/31 02:59:50;;;;;;;;;;;;;;;21.64;52.85;102199.03;2115190;28;1138;-28
2021/03/31 03:00:50;;;;;;;;;;;;;;;21.64;52.80;102193.34;2114402;28;2081;-29
2021/03/31 03:01:51;;;;;;;;;;;;;;;21.63;52.79;102194.47;2115404;28;2294;-28
2021/03/31 03:02:52;;;;;;;;;;;;;;;21.63;52.55;102194.47;2115349;28;1324;-28
2021/03/31 03:03:53;;;;;;;;;;;;;;;21.65;52.59;102197.84;2110511;28;2118;-29
2021/03/31 03:04:53;;;;;;;;;;;;;;;21.64;52.64;102196.19;2114314;28;2515;-29
2021/03/31 03:05:57;;;;;;;;;;;;;;;21.65;52.59;102200.69;2110008;28;2131;-29
2021/03/31 03:07:01;;;;;;;;;;;;;;;21.65;52.74;102188.47;2116135;28;1275;-30
2021/03/31 03:08:02;;;;;;;;;;;;;;;21.66;52.69;102195.84;2115999;28;1497;-31
2021/03/31 03:09:02;;;;;;;;;;;;;;;21.66;52.79;102190.16;2110455;28;3844;-29
2021/03/31 03:10:03;;;;;;;;;;;;;;;21.64;52.75;102189.63;2115730;28;1547;-29
2021/03/31 03:11:04;;;;;;;;;;;;;;;21.66;52.66;102188.13;2111145;28;2111;-29
2021/03/31 03:12:05;;;;;;;;;;;;;;;21.66;52.78;102193.00;2110694;28;3209;-28
2021/03/31 03:13:06;;;;;;;;;;;;;;;21.66;52.67;102190.97;2115901;28;2335;-28
2021/03/31 03:14:06;;;;;;;;;;;;;;;21.65;52.75;102195.00;2115201;28;1381;-30
2021/03/31 03:15:07;;;;;;;;;;;;;;;21.65;52.86;102195.00;2116279;28;1245;-28
2021/03/31 03:16:08;;;;;;;;;;;;;;;21.66;52.76;102193.00;2111063;28;2174;-30
2021/03/31 03:17:08;;;;;;;;;;;;;;;21.66;52.77;102193.81;2109629;28;2267;-28
2021/03/31 03:18:09;;;;;;;;;;;;;;;21.66;52.94;102196.69;2114950;28;1270;-29
2021/03/31 03:19:10;;;;;;;;;;;;;;;21.66;52.71;102188.13;2115379;28;1524;-28
2021/03/31 03:20:11;;;;;;;;;;;;;;;21.66;52.83;102188.13;2112303;28;2100;-28
2021/03/31 03:21:12;;;;;;;;;;;;;;;21.67;52.80;102186.97;2111497;28;2074;-31
2021/03/31 03:22:12;;;;;;;;;;;;;;;21.67;52.65;102188.97;2114414;28;1422;-28
2021/03/31 03:23:13;;;;;;;;;;;;;;;21.66;52.71;102190.97;2110736;28;1953;-30
2021/03/31 03:24:14;;;;;;;;;;;;;;;21.67;52.76;102183.28;2116291;28;1612;-30
2021/03/31 03:25:15;;;;;;;;;;;;;;;21.68;52.87;102190.66;2115253;28;2058;-29
2021/03/31 03:26:15;;;;;;;;;;;;;;;21.66;52.64;102185.28;2110753;28;2122;-29
2021/03/31 03:27:17;;;;;;;;;;;;;;;21.67;52.74;102181.28;2114792;28;1213;-30
2021/03/31 03:28:18;;;;;;;;;;;;;;;21.67;52.94;102186.97;2114819;28;2142;-29
2021/03/31 03:29:19;;;;;;;;;;;;;;;21.67;52.70;102186.97;2116227;28;1200;-30
2021/03/31 03:30:19;;;;;;;;;;;;;;;21.67;52.76;102186.97;2111542;28;3681;-29
2021/03/31 03:31:20;;;;;;;;;;;;;;;21.66;52.79;102185.28;2111179;28;2025;-32
2021/03/31 03:32:21;;;;;;;;;;;;;;;21.66;52.82;102185.28;2108557;28;2107;-29
2021/03/31 03:33:22;;;;;;;;;;;;;;;21.67;52.87;102180.41;2116027;28;1254;-30
2021/03/31 03:34:22;;;;;;;;;;;;;;;21.67;52.87;102186.13;2109860;28;2162;-29
2021/03/31 03:35:23;;;;;;;;;;;;;;;21.67;52.77;102184.13;2108838;28;2153;-29
2021/03/31 03:36:24;;;;;;;;;;;;;;;21.67;52.82;102183.28;2109600;28;2267;-32
2021/03/31 03:37:25;;;;;;;;;;;;;;;21.67;52.82;102184.13;2105763;28;2254;-29
2021/03/31 03:38:26;;;;;;;;;;;;;;;21.67;52.82;102186.97;2106559;28;1556;-29
2021/03/31 03:39:26;;;;;;;;;;;;;;;21.66;52.78;102179.59;2116527;28;1215;-31
2021/03/31 03:40:27;;;;;;;;;;;;;;;21.67;52.81;102183.28;2111994;28;2134;-29
2021/03/31 03:41:28;;;;;;;;;;;;;;;21.67;52.81;102181.28;2114444;28;1454;-29
2021/03/31 03:42:29;;;;;;;;;;;;;;;21.66;52.92;102176.75;2115879;28;1353;-29
2021/03/31 03:43:29;;;;;;;;;;;;;;;21.67;52.92;102172.75;2116359;28;1262;-29
2021/03/31 03:44:31;;;;;;;;;;;;;;;21.67;52.90;102175.59;2115736;28;1457;-31
2021/03/31 03:45:31;;;;;;;;;;;;;;;21.67;52.87;102171.88;2111005;28;2122;-29
2021/03/31 03:46:32;;;;;;;;;;;;;;;21.67;52.96;102171.88;2113431;28;2132;-30
2021/03/31 03:47:33;;;;;;;;;;;;;;;21.66;52.74;102170.22;2116505;28;1067;-29
2021/03/31 03:48:34;;;;;;;;;;;;;;;21.67;52.71;102171.88;2115846;28;1961;-28
2021/03/31 03:49:36;;;;;;;;;;;;;;;21.67;52.91;102172.75;2113379;28;1254;-30
2021/03/31 03:50:38;;;;;;;;;;;;;;;21.66;52.67;102173.88;2110918;28;2205;-33
2021/03/31 03:51:39;;;;;;;;;;;;;;;21.66;52.74;102173.88;2111598;28;2179;-30
2021/03/31 03:52:39;;;;;;;;;;;;;;;21.66;52.93;102173.88;2113078;28;1800;-32
2021/03/31 03:53:40;;;;;;;;;;;;;;;21.65;52.61;102172.22;2114564;28;1423;-30
2021/03/31 03:54:41;;;;;;;;;;;;;;;21.63;52.72;102174.53;2114701;28;2167;-37
2021/03/31 03:55:42;;;;;;;;;;;;;;;21.63;52.57;102174.53;2112690;28;2121;-29
2021/03/31 03:56:43;;;;;;;;;;;;;;;21.63;52.61;102168.84;2109365;28;2350;-29
2021/03/31 03:57:44;;;;;;;;;;;;;;;21.64;52.71;102169.69;2108079;28;2181;-31
2021/03/31 03:58:44;;;;;;;;;;;;;;;21.64;52.67;102167.69;2115818;28;1212;-36
2021/03/31 03:59:45;;;;;;;;;;;;;;;21.64;52.77;102173.41;2115214;28;2325;-29
2021/03/31 04:00:46;;;;;;;;;;;;;;;21.65;52.66;102163.66;2115752;28;1252;-29
2021/03/31 04:01:47;;;;;;;;;;;;;;;21.66;52.54;102167.34;2111876;28;1613;-28
2021/03/31 04:02:47;;;;;;;;;;;;;;;21.66;52.76;102159.66;2114866;28;1957;-35
2021/03/31 04:03:48;;;;;;;;;;;;;;;21.66;52.58;102158.81;2113038;28;2405;-28
2021/03/31 04:04:49;;;;;;;;;;;;;;;21.66;52.59;102161.66;2115649;28;1590;-27
2021/03/31 04:05:50;;;;;;;;;;;;;;;21.65;52.63;102152.28;2114425;28;2141;-29
2021/03/31 04:06:51;;;;;;;;;;;;;;;21.67;52.80;102160.47;2111162;28;2245;-36
2021/03/31 04:07:51;;;;;;;;;;;;;;;21.66;52.73;102159.66;2112153;28;1254;-29
2021/03/31 04:08:52;;;;;;;;;;;;;;;21.66;52.68;102156.81;2114650;28;1915;-29
2021/03/31 04:09:53;;;;;;;;;;;;;;;21.66;52.79;102153.94;2114439;28;1200;-29
2021/03/31 04:10:54;;;;;;;;;;;;;;;21.67;52.71;102157.63;2113829;28;2312;-31
2021/03/31 04:11:55;;;;;;;;;;;;;;;21.67;52.83;102149.09;2113290;28;1634;-29
2021/03/31 04:12:55;;;;;;;;;;;;;;;21.68;52.89;102156.50;2114647;28;2108;-28
2021/03/31 04:13:56;;;;;;;;;;;;;;;21.67;52.80;102155.66;2112344;28;1281;-30
2021/03/31 04:14:57;;;;;;;;;;;;;;;21.67;52.67;102155.66;2115767;28;1827;-29
2021/03/31 04:15:57;;;;;;;;;;;;;;;21.67;52.77;102144.25;2112324;28;2401;-29
2021/03/31 04:16:58;;;;;;;;;;;;;;;21.68;52.84;102148.78;2111519;28;2176;-28
2021/03/31 04:17:59;;;;;;;;;;;;;;;21.67;52.72;102147.09;2116021;28;1126;-32
2021/03/31 04:19:00;;;;;;;;;;;;;;;21.68;52.71;102153.63;2115967;28;2073;-29
2021/03/31 04:20:00;;;;;;;;;;;;;;;21.67;52.74;102149.97;2115587;28;1559;-29
2021/03/31 04:21:01;;;;;;;;;;;;;;;21.68;52.84;102150.78;2114932;28;1988;-33
2021/03/31 04:22:02;;;;;;;;;;;;;;;21.68;52.69;102150.78;2110659;28;2118;-31
2021/03/31 04:23:03;;;;;;;;;;;;;;;21.69;52.95;102152.47;2113335;28;1678;-27
2021/03/31 04:24:03;;;;;;;;;;;;;;;21.68;52.69;102153.63;2115593;28;1652;-28
2021/03/31 04:25:04;;;;;;;;;;;;;;;21.68;52.79;102156.50;2115449;28;1283;-30
2021/03/31 04:26:05;;;;;;;;;;;;;;;21.66;52.85;102156.81;2114487;28;2179;-28
2021/03/31 04:27:06;;;;;;;;;;;;;;;21.67;52.74;102158.50;2113766;28;2407;-27
2021/03/31 04:28:07;;;;;;;;;;;;;;;21.68;52.87;102162.19;2112881;28;1668;-29
2021/03/31 04:29:07;;;;;;;;;;;;;;;21.68;53.11;102160.16;2115889;28;2118;-28
2021/03/31 04:30:08;;;;;;;;;;;;;;;21.68;53.15;102157.31;2115069;28;3647;-30
2021/03/31 04:31:09;;;;;;;;;;;;;;;21.67;53.05;102158.50;2114339;28;2104;-28
2021/03/31 04:32:10;;;;;;;;;;;;;;;21.69;53.09;102161.00;2114441;28;2330;-28
2021/03/31 04:33:11;;;;;;;;;;;;;;;21.69;53.40;102158.16;2109339;28;2142;-34
2021/03/31 04:34:11;;;;;;;;;;;;;;;21.70;53.52;102154.16;2111211;28;1419;-29
2021/03/31 04:35:12;;;;;;;;;;;;;;;21.69;53.55;102159.00;2115178;28;1975;-34
2021/03/31 04:36:13;;;;;;;;;;;;;;;21.69;53.44;102155.31;2113771;28;2153;-28
2021/03/31 04:37:14;;;;;;;;;;;;;;;21.46;48.22;102152.47;2114677;28;2706;-28
2021/03/31 04:38:14;;;;;;;;;;;;;;;20.98;45.44;102153.06;2115605;28;1697;-27
2021/03/31 04:39:15;;;;;;;;;;;;;;;20.45;42.24;102146.00;2115711;28;1470;-28
2021/03/31 04:40:16;;;;;;;;;;;;;;;19.77;41.77;102141.94;2101271;28;1230;-31
2021/03/31 04:41:17;;;;;;;;;;;;;;;19.97;44.19;102143.53;2106079;28;2207;-28
2021/03/31 04:42:19;;;;;;;;;;;;;;;20.31;44.98;102142.28;2115592;28;1295;-29
2021/03/31 04:43:20;;;;;;;;;;;;;;;20.54;45.52;102139.56;2113118;28;1997;-28
2021/03/31 04:44:20;;;;;;;;;;;;;;;20.69;46.02;102140.06;2114782;28;2075;-33
2021/03/31 04:45:21;;;;;;;;;;;;;;;20.81;46.18;102142.34;2113775;28;2178;-28
2021/03/31 04:46:22;;;;;;;;;;;;;;;20.90;46.54;102133.94;2115419;27;1605;-28
2021/03/31 04:47:23;;;;;;;;;;;;;;;20.96;46.82;102141.16;2113253;28;2128;-29
2021/03/31 04:48:23;;;;;;;;;;;;;;;21.01;46.94;102143.06;2116200;28;1285;-30
2021/03/31 04:49:24;;;;;;;;;;;;;;;21.05;47.22;102138.41;2115564;28;1909;-28
2021/03/31 04:50:25;;;;;;;;;;;;;;;21.07;47.33;102138.94;2109086;28;3193;-29
2021/03/31 04:51:26;;;;;;;;;;;;;;;21.09;47.58;102137.44;2110125;28;2399;-30
2021/03/31 04:52:28;;;;;;;;;;;;;;;21.11;47.61;102128.56;2115992;28;1670;-28
2021/03/31 04:53:29;;;;;;;;;;;;;;;21.13;47.74;102134.78;2115553;28;1282;-28
2021/03/31 04:54:30;;;;;;;;;;;;;;;21.14;47.69;102127.91;2113646;28;1619;-30
2021/03/31 04:55:31;;;;;;;;;;;;;;;21.15;47.83;102137.31;2113077;28;2141;-28
2021/03/31 04:56:31;;;;;;;;;;;;;;;21.15;47.90;102134.47;2115589;28;1635;-29
2021/03/31 04:57:32;;;;;;;;;;;;;;;21.16;48.10;102130.44;2113693;28;2166;-28
2021/03/31 04:58:33;;;;;;;;;;;;;;;21.16;48.03;102131.28;2110539;28;2173;-31
2021/03/31 04:59:34;;;;;;;;;;;;;;;21.17;48.01;102132.13;2115744;28;1150;-28
2021/03/31 05:00:36;;;;;;;;;;;;;;;21.17;48.09;102127.25;2112982;28;2316;-28
2021/03/31 05:01:36;;;;;;;;;;;;;;;21.17;48.28;102123.59;2115306;28;2046;-28
2021/03/31 05:02:38;;;;;;;;;;;;;;;21.18;48.30;102128.13;2114806;28;1029;-29
2021/03/31 05:03:39;;;;;;;;;;;;;;;21.19;48.36;102126.97;2111746;28;2073;-31
2021/03/31 05:04:39;;;;;;;;;;;;;;;21.18;48.29;102126.13;2114173;28;1614;-29
2021/03/31 05:05:40;;;;;;;;;;;;;;;21.18;48.32;102117.59;2109510;28;2425;-31
2021/03/31 05:06:41;;;;;;;;;;;;;;;21.18;48.22;102123.28;2114133;28;2052;-30
2021/03/31 05:07:42;;;;;;;;;;;;;;;21.18;48.24;102120.44;2109173;28;1222;-30
2021/03/31 05:08:43;;;;;;;;;;;;;;;21.19;48.49;102118.41;2112655;28;2133;-28
2021/03/31 05:09:43;;;;;;;;;;;;;;;21.19;48.35;102121.25;2110060;28;3920;-28
2021/03/31 05:10:44;;;;;;;;;;;;;;;21.18;48.35;102117.59;2115404;28;1158;-28
2021/03/31 05:11:45;;;;;;;;;;;;;;;21.18;48.36;102117.59;2111987;28;2960;-31
2021/03/31 05:12:46;;;;;;;;;;;;;;;21.19;48.31;102118.41;2114816;28;1418;-29
2021/03/31 05:13:48;;;;;;;;;;;;;;;21.05;45.68;102118.47;2114499;28;2209;-31
2021/03/31 05:14:49;;;;;;;;;;;;;;;20.64;42.13;102119.44;2109923;28;2505;-29
2021/03/31 05:15:49;;;;;;;;;;;;;;;20.44;42.18;102123.53;2115163;28;1186;-29
2021/03/31 05:16:50;;;;;;;;;;;;;;;20.28;41.25;102117.34;2111613;28;2076;-35
2021/03/31 05:17:51;;;;;;;;;;;;;;;20.15;41.28;102119.06;2113674;28;2255;-28